Time;durP1;ratioP1;P1;durP2;ratioP2;P2;SDS_P1;SDS_P2;PMS_P1;PMS_P2;Temp;Humidity;BMP_temperature;BMP_pressure;BME280_temperature;BME280_humidity;BME280_pressure;Samples;Min_cycle;Max_cycle;Signal;HPM_P1;HPM_P2
2022/03/05 00:01:17;;;;;;;16.05;10.40;;;2.90;94.10;;;;;;5025466;28;20307;-89
2022/03/05 00:03:46;;;;;;;18.45;9.73;;;2.20;93.90;;;;;;5031623;28;20215;-88
2022/03/05 00:06:18;;;;;;;18.80;10.10;;;2.80;94.20;;;;;;5024551;28;20235;-90
2022/03/05 00:08:45;;;;;;;17.55;10.50;;;2.80;94.20;;;;;;5021636;28;20214;-91
2022/03/05 00:11:12;;;;;;;18.80;11.15;;;2.80;94.10;;;;;;5021618;28;20227;-91
2022/03/05 00:13:42;;;;;;;17.73;10.00;;;2.90;93.90;;;;;;5019866;28;20203;-89
2022/03/05 00:16:13;;;;;;;15.30;10.13;;;2.70;94.00;;;;;;5021270;28;20196;-88
2022/03/05 00:18:50;;;;;;;20.23;12.48;;;2.70;93.90;;;;;;5020830;28;20584;-89
2022/03/05 00:21:21;;;;;;;17.55;11.32;;;2.60;94.00;;;;;;5021276;28;20215;-90
2022/03/05 00:23:48;;;;;;;18.52;10.18;;;2.60;94.10;;;;;;5020156;28;20202;-89
2022/03/05 00:26:17;;;;;;;16.13;9.82;;;2.60;94.00;;;;;;5020892;28;20676;-90
2022/03/05 00:28:44;;;;;;;17.63;11.02;;;2.10;93.80;;;;;;5019957;28;20200;-89
2022/03/05 00:31:12;;;;;;;20.27;10.95;;;2.60;94.10;;;;;;5029919;28;20654;-90
2022/03/05 00:33:39;;;;;;;19.27;10.27;;;2.30;94.00;;;;;;5034989;28;20204;-90
2022/03/05 00:36:07;;;;;;;19.20;10.30;;;2.50;94.20;;;;;;5019104;28;20232;-90
2022/03/05 00:38:36;;;;;;;16.58;10.02;;;2.70;94.30;;;;;;5019743;28;20267;-88
2022/03/05 00:41:03;;;;;;;19.63;11.20;;;2.60;94.10;;;;;;5020961;28;20223;-89
2022/03/05 00:43:32;;;;;;;21.80;10.45;;;2.30;94.10;;;;;;5018432;28;20231;-91
2022/03/05 00:46:00;;;;;;;16.92;10.52;;;2.70;94.20;;;;;;5020224;28;20227;-91
2022/03/05 00:48:27;;;;;;;16.08;9.48;;;2.40;94.20;;;;;;5025145;28;20207;-90
2022/03/05 00:50:58;;;;;;;18.65;10.30;;;2.30;94.40;;;;;;5028107;28;20203;-89
2022/03/05 00:53:25;;;;;;;15.73;10.02;;;2.40;94.60;;;;;;5035267;28;20168;-89
2022/03/05 00:55:56;;;;;;;18.23;10.48;;;2.50;94.90;;;;;;5037535;28;20227;-91
2022/03/05 00:58:25;;;;;;;18.00;10.15;;;2.40;95.20;;;;;;5036572;28;20196;-89
2022/03/05 01:00:52;;;;;;;23.50;10.90;;;2.30;95.30;;;;;;5030669;28;20246;-90
2022/03/05 01:03:20;;;;;;;14.45;9.13;;;2.10;95.20;;;;;;5018907;28;20273;-90
2022/03/05 01:05:47;;;;;;;20.85;9.90;;;2.00;95.20;;;;;;5020651;28;20621;-90
2022/03/05 01:08:14;;;;;;;17.48;9.75;;;2.30;95.40;;;;;;5018560;28;20207;-90
2022/03/05 01:10:41;;;;;;;21.67;10.13;;;2.30;95.50;;;;;;5026350;28;20231;-90
2022/03/05 01:13:10;;;;;;;16.67;9.48;;;2.10;95.40;;;;;;5036795;28;20207;-89
2022/03/05 01:15:37;;;;;;;16.65;10.80;;;2.10;95.60;;;;;;5023885;28;20238;-90
2022/03/05 01:18:04;;;;;;;15.70;8.95;;;2.10;95.90;;;;;;5020685;28;20213;-89
2022/03/05 01:20:31;;;;;;;14.88;10.13;;;2.10;95.70;;;;;;5022124;28;20310;-90
2022/03/05 01:22:58;;;;;;;14.70;8.35;;;2.40;95.60;;;;;;5021645;28;20235;-89
2022/03/05 01:25:25;;;;;;;16.55;10.40;;;2.30;95.60;;;;;;5031549;28;20242;-89
2022/03/05 01:27:52;;;;;;;18.48;10.32;;;2.30;95.70;;;;;;5036040;28;20200;-89
2022/03/05 01:30:22;;;;;;;18.10;9.85;;;2.30;95.60;;;;;;5032089;28;20237;-89
2022/03/05 01:32:49;;;;;;;19.13;9.63;;;2.20;95.80;;;;;;5025875;28;20207;-90
2022/03/05 01:35:16;;;;;;;18.90;9.82;;;2.10;95.60;;;;;;5025411;28;20673;-90
2022/03/05 01:37:43;;;;;;;16.95;9.65;;;2.00;95.90;;;;;;5023070;28;20725;-89
2022/03/05 01:40:11;;;;;;;15.25;9.27;;;2.00;96.10;;;;;;5021804;28;20303;-89
2022/03/05 01:42:38;;;;;;;17.25;9.93;;;1.90;96.40;;;;;;5023046;28;20310;-89
2022/03/05 01:45:06;;;;;;;18.85;9.93;;;2.00;96.80;;;;;;5025220;28;20292;-90
2022/03/05 01:47:37;;;;;;;19.45;9.55;;;1.80;97.20;;;;;;5030218;28;20231;-89
2022/03/05 01:50:05;;;;;;;18.90;8.75;;;1.90;97.30;;;;;;5023311;28;20208;-90
2022/03/05 01:52:32;;;;;;;14.63;9.30;;;1.80;97.40;;;;;;5035775;28;20207;-88
2022/03/05 01:55:00;;;;;;;16.77;10.35;;;1.70;97.40;;;;;;5039528;28;20208;-89
2022/03/05 01:57:27;;;;;;;19.55;9.10;;;1.90;97.70;;;;;;5041194;28;20218;-90
2022/03/05 01:59:54;;;;;;;16.85;10.13;;;1.80;97.50;;;;;;5034916;28;20210;-89
2022/03/05 02:02:21;;;;;;;16.90;9.93;;;1.30;97.60;;;;;;5022567;28;20227;-90
2022/03/05 02:04:49;;;;;;;16.23;9.43;;;1.80;97.90;;;;;;5021575;28;20235;-90
2022/03/05 02:07:17;;;;;;;14.85;9.80;;;1.60;97.90;;;;;;5028560;28;20215;-88
2022/03/05 02:09:44;;;;;;;15.70;9.70;;;1.90;98.10;;;;;;5038508;28;20215;-89
2022/03/05 02:12:11;;;;;;;14.32;9.48;;;1.70;97.90;;;;;;5036069;28;20203;-88
2022/03/05 02:14:38;;;;;;;15.75;10.13;;;1.70;97.80;;;;;;5036059;28;20223;-89
2022/03/05 02:17:05;;;;;;;14.50;9.38;;;1.90;97.90;;;;;;5034624;28;20212;-89
2022/03/05 02:19:35;;;;;;;14.45;9.70;;;1.80;97.90;;;;;;5028195;28;20226;-90
2022/03/05 02:22:06;;;;;;;19.73;10.02;;;1.90;98.00;;;;;;5023125;28;20243;-90
2022/03/05 02:24:33;;;;;;;14.73;9.10;;;1.70;98.10;;;;;;5023047;28;20266;-90
2022/03/05 02:27:02;;;;;;;16.63;9.85;;;1.90;98.10;;;;;;5021254;28;20269;-90
2022/03/05 02:29:29;;;;;;;14.10;9.07;;;1.60;98.10;;;;;;5027143;28;20207;-89
2022/03/05 02:31:56;;;;;;;17.45;9.38;;;1.80;98.50;;;;;;5026471;28;20213;-89
2022/03/05 02:34:23;;;;;;;13.88;8.40;;;1.80;98.70;;;;;;5021039;28;20247;-90
2022/03/05 02:36:51;;;;;;;15.57;9.15;;;1.50;98.60;;;;;;5023620;28;20207;-91
2022/03/05 02:39:23;;;;;;;14.50;8.63;;;1.70;98.70;;;;;;5024549;28;20208;-89
2022/03/05 02:41:51;;;;;;;15.13;8.02;;;1.60;98.70;;;;;;5020948;28;20228;-89
2022/03/05 02:44:18;;;;;;;15.85;9.40;;;1.50;99.10;;;;;;5019172;28;20323;-89
2022/03/05 02:46:45;;;;;;;17.80;9.50;;;1.60;99.00;;;;;;5019878;28;20231;-89
2022/03/05 02:49:12;;;;;;;14.20;8.35;;;1.40;99.10;;;;;;5019550;28;20574;-90
2022/03/05 02:51:40;;;;;;;16.50;9.63;;;1.60;99.40;;;;;;5019255;28;20227;-90
2022/03/05 02:54:07;;;;;;;16.23;8.88;;;1.40;99.40;;;;;;5019564;28;20657;-90
2022/03/05 02:56:35;;;;;;;14.50;9.00;;;1.40;99.40;;;;;;5019452;28;20656;-90
2022/03/05 02:59:03;;;;;;;15.88;9.50;;;1.70;99.60;;;;;;5020431;28;20211;-88
2022/03/05 03:01:30;;;;;;;17.58;9.15;;;1.50;99.60;;;;;;5020790;28;20223;-89
2022/03/05 03:03:58;;;;;;;16.60;9.50;;;1.60;99.70;;;;;;5029259;28;20226;-89
2022/03/05 03:06:25;;;;;;;16.10;8.55;;;1.40;99.60;;;;;;5034390;28;20231;-88
2022/03/05 03:08:52;;;;;;;15.40;8.25;;;1.40;99.90;;;;;;5022461;28;20670;-90
2022/03/05 03:11:19;;;;;;;14.00;8.65;;;1.50;99.90;;;;;;5020651;28;20222;-88
2022/03/05 03:13:47;;;;;;;17.77;8.85;;;1.40;99.90;;;;;;5024015;28;20207;-89
2022/03/05 03:16:15;;;;;;;14.57;8.60;;;1.40;99.90;;;;;;5039668;28;20180;-89
2022/03/05 03:18:42;;;;;;;16.52;9.52;;;1.50;99.90;;;;;;5025568;28;20215;-89
2022/03/05 03:21:10;;;;;;;14.07;8.70;;;1.40;99.90;;;;;;5019089;28;20253;-89
2022/03/05 03:23:37;;;;;;;15.48;8.95;;;1.20;99.90;;;;;;5019727;28;20231;-89
2022/03/05 03:26:04;;;;;;;13.05;7.75;;;1.30;99.90;;;;;;5060195;23;20262;-87
2022/03/05 03:28:31;;;;;;;16.23;9.57;;;1.30;99.90;;;;;;5039165;28;20194;-87
2022/03/05 03:31:00;;;;;;;14.25;9.05;;;1.10;99.90;;;;;;5037987;28;20231;-87
2022/03/05 03:33:27;;;;;;;15.93;8.55;;;1.30;99.90;;;;;;5036766;28;20246;-88
2022/03/05 03:35:54;;;;;;;13.30;8.60;;;1.10;99.90;;;;;;5032309;28;20242;-87
2022/03/05 03:38:21;;;;;;;15.57;8.27;;;1.30;99.90;;;;;;5023445;28;20221;-88
2022/03/05 03:40:48;;;;;;;15.20;8.23;;;1.20;99.90;;;;;;5019655;28;20208;-87
2022/03/05 03:43:15;;;;;;;19.88;9.32;;;1.20;99.90;;;;;;5021084;28;20212;-88
2022/03/05 03:45:41;;;;;;;16.42;8.30;;;1.20;99.90;;;;;;5019140;28;20306;-88
2022/03/05 03:48:10;;;;;;;16.73;9.27;;;1.20;99.90;;;;;;5018221;28;20732;-88
2022/03/05 03:50:37;;;;;;;14.52;9.07;;;1.10;99.90;;;;;;5017872;28;20207;-88
2022/03/05 03:53:04;;;;;;;13.05;8.50;;;1.30;99.90;;;;;;5016694;28;20206;-88
2022/03/05 03:55:30;;;;;;;12.95;8.13;;;1.00;99.90;;;;;;5017631;28;20600;-88
2022/03/05 03:57:57;;;;;;;15.52;9.63;;;1.20;99.90;;;;;;5017923;28;20282;-88
2022/03/05 04:00:24;;;;;;;16.70;8.50;;;1.10;99.90;;;;;;5017658;28;20373;-88
2022/03/05 04:02:51;;;;;;;16.80;9.25;;;1.00;99.90;;;;;;5019487;28;20228;-88
2022/03/05 04:05:20;;;;;;;18.23;9.00;;;1.00;99.90;;;;;;5019915;28;20234;-88
2022/03/05 04:10:31;;;;;;;16.42;7.95;;;0.90;99.90;;;;;;5034099;28;20199;-88
2022/03/05 04:12:58;;;;;;;16.75;9.02;;;1.00;99.90;;;;;;5038384;28;20200;-87
2022/03/05 04:15:25;;;;;;;15.50;9.18;;;1.10;99.90;;;;;;5030273;28;20223;-87
2022/03/05 04:17:56;;;;;;;14.38;7.68;;;1.10;99.90;;;;;;5037605;28;20207;-88
2022/03/05 04:20:25;;;;;;;14.80;8.82;;;0.80;99.90;;;;;;5028189;28;20215;-88
2022/03/05 04:22:52;;;;;;;11.80;7.03;;;0.90;99.90;;;;;;5021295;28;20226;-88
2022/03/05 04:25:19;;;;;;;17.40;8.32;;;0.70;99.90;;;;;;5018309;28;20258;-88
2022/03/05 04:27:46;;;;;;;16.45;8.23;;;1.00;99.90;;;;;;5023111;28;20215;-88
2022/03/05 04:30:13;;;;;;;15.20;8.15;;;0.80;99.90;;;;;;5025609;28;20211;-88
2022/03/05 04:32:41;;;;;;;13.65;7.60;;;1.00;99.90;;;;;;5018213;28;20302;-88
2022/03/05 04:35:09;;;;;;;11.57;7.43;;;1.20;99.90;;;;;;5017011;28;20223;-88
2022/03/05 04:37:38;;;;;;;13.23;7.22;;;1.00;99.90;;;;;;5016260;28;20578;-88
2022/03/05 04:40:06;;;;;;;13.18;7.63;;;1.00;99.90;;;;;;5017348;28;20258;-88
2022/03/05 04:42:33;;;;;;;13.65;7.60;;;0.90;99.90;;;;;;5016916;28;20318;-88
2022/03/05 04:45:00;;;;;;;17.45;8.43;;;0.90;99.90;;;;;;5017069;28;20227;-88
2022/03/05 04:47:27;;;;;;;16.90;8.88;;;0.80;99.90;;;;;;5017226;28;20247;-88
2022/03/05 04:50:09;;;;;;;18.80;8.57;;;0.90;99.90;;;;;;5016353;28;20219;-88
2022/03/05 04:52:38;;;;;;;11.20;6.80;;;0.90;99.90;;;;;;5016708;28;20249;-88
2022/03/05 04:55:07;;;;;;;13.75;8.75;;;0.70;99.90;;;;;;5015835;28;20266;-88
2022/03/05 04:57:35;;;;;;;12.48;7.88;;;0.80;99.90;;;;;;5015541;28;20215;-88
2022/03/05 05:00:02;;;;;;;14.18;7.90;;;1.00;99.90;;;;;;5015134;28;20246;-88
2022/03/05 05:02:29;;;;;;;15.23;8.57;;;0.90;99.90;;;;;;5015103;28;20635;-88
2022/03/05 05:04:56;;;;;;;12.40;8.10;;;0.90;99.90;;;;;;5015514;28;20314;-88
2022/03/05 05:07:22;;;;;;;15.98;9.57;;;0.90;99.90;;;;;;5015796;28;20253;-88
2022/03/05 05:09:51;;;;;;;17.83;8.77;;;0.80;99.90;;;;;;5015455;28;20203;-88
2022/03/05 05:12:18;;;;;;;18.17;9.20;;;0.60;99.90;;;;;;5016859;28;20243;-88
2022/03/05 05:14:45;;;;;;;17.05;8.48;;;0.60;99.90;;;;;;5017860;28;20258;-88
2022/03/05 05:17:12;;;;;;;13.10;8.13;;;0.80;99.90;;;;;;5019251;28;20298;-88
2022/03/05 05:19:39;;;;;;;15.73;7.90;;;0.80;99.90;;;;;;5017631;28;20203;-88
2022/03/05 05:22:07;;;;;;;16.92;8.52;;;0.70;99.90;;;;;;5016996;28;20265;-88
2022/03/05 05:24:36;;;;;;;14.02;8.63;;;0.70;99.90;;;;;;5029816;28;20219;-88
2022/03/05 05:27:05;;;;;;;15.85;8.80;;;0.70;99.90;;;;;;5036605;28;20214;-87
2022/03/05 05:29:32;;;;;;;19.15;9.30;;;0.60;99.90;;;;;;5030932;28;20234;-88
2022/03/05 05:32:00;;;;;;;11.65;7.45;;;0.60;99.90;;;;;;5019486;28;20199;-88
2022/03/05 05:34:27;;;;;;;15.57;8.60;;;0.70;99.90;;;;;;5032737;28;20270;-88
2022/03/05 05:36:53;;;;;;;18.48;9.25;;;0.50;99.90;;;;;;5023546;28;20200;-88
2022/03/05 05:39:20;;;;;;;17.95;8.77;;;0.40;99.90;;;;;;5018915;28;20210;-87
2022/03/05 05:41:47;;;;;;;14.40;8.45;;;0.50;99.90;;;;;;5016919;28;20318;-87
2022/03/05 05:44:16;;;;;;;16.17;9.85;;;0.60;99.90;;;;;;5016854;28;20211;-87
2022/03/05 05:46:42;;;;;;;14.38;9.35;;;0.70;99.90;;;;;;5016618;28;20226;-87
2022/03/05 05:49:09;;;;;;;16.17;8.63;;;0.40;99.90;;;;;;5016296;28;20231;-87
2022/03/05 05:51:36;;;;;;;16.20;9.05;;;0.40;99.90;;;;;;5017319;28;20293;-87
2022/03/05 05:54:04;;;;;;;14.95;8.90;;;0.50;99.90;;;;;;5017294;28;20239;-87
2022/03/05 05:56:31;;;;;;;15.15;8.88;;;0.60;99.90;;;;;;5030783;28;20640;-88
2022/03/05 05:58:58;;;;;;;14.55;8.65;;;0.70;99.90;;;;;;5023262;28;20298;-87
2022/03/05 06:01:27;;;;;;;15.80;8.95;;;0.40;99.90;;;;;;5018124;28;20222;-87
2022/03/05 06:03:55;;;;;;;19.80;10.10;;;0.50;99.90;;;;;;5016566;28;20290;-87
2022/03/05 06:06:22;;;;;;;15.98;8.90;;;0.40;99.90;;;;;;5019739;28;20251;-87
2022/03/05 06:08:50;;;;;;;15.45;8.95;;;0.50;99.90;;;;;;5019362;28;20269;-87
2022/03/05 06:11:17;;;;;;;17.00;9.68;;;0.50;99.90;;;;;;5019697;28;20238;-87
2022/03/05 06:13:44;;;;;;;14.85;9.00;;;0.30;99.90;;;;;;5023998;28;20215;-87
2022/03/05 06:16:11;;;;;;;19.13;9.57;;;0.40;99.90;;;;;;5034062;28;20285;-89
2022/03/05 06:18:40;;;;;;;15.65;9.52;;;0.40;99.90;;;;;;5033469;28;20222;-87
2022/03/05 06:21:07;;;;;;;16.70;9.55;;;0.60;99.90;;;;;;5021887;28;20207;-87
2022/03/05 06:23:34;;;;;;;15.95;9.82;;;0.50;99.90;;;;;;5023750;28;20242;-87
2022/03/05 06:26:02;;;;;;;20.95;10.25;;;0.50;99.90;;;;;;5037220;28;20287;-87
2022/03/05 06:28:29;;;;;;;17.48;10.13;;;0.50;99.90;;;;;;5029897;28;20261;-87
2022/03/05 06:30:56;;;;;;;19.10;10.88;;;0.40;99.90;;;;;;5026734;28;20207;-86
2022/03/05 06:33:23;;;;;;;18.23;10.90;;;0.30;99.90;;;;;;5026091;28;20257;-87
2022/03/05 06:35:51;;;;;;;19.83;9.50;;;0.40;99.90;;;;;;5020620;28;20224;-87
2022/03/05 06:38:18;;;;;;;17.52;10.38;;;0.40;99.90;;;;;;5020522;28;20265;-87
2022/03/05 06:40:45;;;;;;;19.05;10.00;;;0.40;99.90;;;;;;5021853;28;20239;-87
2022/03/05 06:43:13;;;;;;;19.92;10.10;;;0.40;99.90;;;;;;5023299;28;20220;-87
2022/03/05 06:45:40;;;;;;;23.15;12.60;;;0.60;99.90;;;;;;5021656;28;20318;-87
2022/03/05 06:48:07;;;;;;;19.85;10.90;;;0.40;99.90;;;;;;5021987;28;20203;-88
2022/03/05 06:50:34;;;;;;;20.65;11.77;;;0.50;99.90;;;;;;5030884;28;20275;-88
2022/03/05 06:53:05;;;;;;;19.20;11.48;;;0.50;99.90;;;;;;5038421;28;20215;-87
2022/03/05 06:55:33;;;;;;;19.90;10.68;;;0.50;99.90;;;;;;5039423;28;20223;-87
2022/03/05 06:58:00;;;;;;;19.17;10.10;;;0.50;99.90;;;;;;5034042;28;20244;-88
2022/03/05 07:00:27;;;;;;;20.08;10.32;;;0.70;99.90;;;;;;5039738;28;20202;-87
2022/03/05 07:02:53;;;;;;;17.75;10.40;;;0.70;99.90;;;;;;5038816;28;20238;-88
2022/03/05 07:05:20;;;;;;;15.38;9.95;;;0.60;99.90;;;;;;5037875;28;20207;-88
2022/03/05 07:07:47;;;;;;;22.35;11.50;;;0.60;99.90;;;;;;5024282;28;20253;-87
2022/03/05 07:10:16;;;;;;;19.73;11.18;;;0.80;99.90;;;;;;5023458;28;20261;-88
2022/03/05 07:12:43;;;;;;;20.95;10.30;;;0.60;99.90;;;;;;5035855;28;20214;-88
2022/03/05 07:15:10;;;;;;;20.63;10.95;;;1.00;99.90;;;;;;5038836;28;20243;-88
2022/03/05 07:17:37;;;;;;;18.08;11.32;;;0.90;99.90;;;;;;5027128;28;20231;-87
2022/03/05 07:20:05;;;;;;;18.08;9.90;;;1.10;99.90;;;;;;5027820;28;20211;-88
2022/03/05 07:22:32;;;;;;;17.73;10.25;;;1.00;99.90;;;;;;5021538;28;20254;-88
2022/03/05 07:24:59;;;;;;;21.08;11.00;;;1.00;99.90;;;;;;5025423;28;20318;-87
2022/03/05 07:27:27;;;;;;;20.95;11.70;;;1.30;99.90;;;;;;5024724;28;20215;-87
2022/03/05 07:29:54;;;;;;;27.40;14.27;;;1.20;99.90;;;;;;5034641;28;20200;-88
2022/03/05 07:32:21;;;;;;;18.48;11.05;;;1.20;99.90;;;;;;5025631;28;20637;-88
2022/03/05 07:34:48;;;;;;;20.75;11.15;;;1.20;99.90;;;;;;5019627;28;20314;-88
2022/03/05 07:37:15;;;;;;;17.60;11.68;;;1.50;99.90;;;;;;5020054;28;20215;-87
2022/03/05 07:39:43;;;;;;;19.52;12.93;;;1.60;99.90;;;;;;5021315;28;20246;-88
2022/03/05 07:42:13;;;;;;;21.98;11.35;;;1.50;99.90;;;;;;5020659;28;20210;-88
2022/03/05 07:44:41;;;;;;;18.10;11.73;;;1.80;99.90;;;;;;5020312;28;20235;-88
2022/03/05 07:47:08;;;;;;;24.23;12.68;;;1.70;99.90;;;;;;5024594;28;20219;-89
2022/03/05 07:49:35;;;;;;;21.92;12.75;;;1.70;99.90;;;;;;5034439;28;20250;-88
2022/03/05 07:52:02;;;;;;;24.88;12.50;;;1.90;99.90;;;;;;5025729;28;20257;-88
2022/03/05 07:54:29;;;;;;;22.08;11.98;;;2.00;99.90;;;;;;5027646;28;20203;-88
2022/03/05 07:56:56;;;;;;;21.77;11.20;;;2.00;99.90;;;;;;5034422;28;20266;-87
2022/03/05 07:59:23;;;;;;;23.50;11.40;;;2.00;99.90;;;;;;5029419;28;20214;-88
2022/03/05 08:01:51;;;;;;;16.98;10.23;;;2.10;99.90;;;;;;5026711;28;20216;-88
2022/03/05 08:04:18;;;;;;;26.77;12.05;;;2.50;99.90;;;;;;5025829;28;20272;-88
2022/03/05 08:06:45;;;;;;;20.25;11.45;;;2.40;99.90;;;;;;5021686;28;20306;-88
2022/03/05 08:09:12;;;;;;;19.02;11.32;;;2.70;99.90;;;;;;5019570;28;20335;-87
2022/03/05 08:11:43;;;;;;;30.92;13.52;;;2.70;99.90;;;;;;5022041;28;20215;-88
2022/03/05 08:14:12;;;;;;;21.73;13.60;;;2.80;99.90;;;;;;5018209;28;20189;-88
2022/03/05 08:16:39;;;;;;;21.25;12.27;;;3.00;99.90;;;;;;5019451;28;20260;-88
2022/03/05 08:19:07;;;;;;;22.20;11.85;;;3.00;99.90;;;;;;5019102;28;20240;-88
2022/03/05 08:21:34;;;;;;;16.70;9.73;;;3.00;99.90;;;;;;5021692;28;20227;-88
2022/03/05 08:24:01;;;;;;;20.25;12.38;;;3.10;99.90;;;;;;5019629;28;20260;-88
2022/03/05 08:26:28;;;;;;;27.27;14.55;;;3.40;99.90;;;;;;5017590;28;20291;-88
2022/03/05 08:28:56;;;;;;;23.27;14.88;;;2.90;99.90;;;;;;5017223;28;20228;-88
2022/03/05 08:31:22;;;;;;;22.98;13.52;;;3.60;99.90;;;;;;5020237;28;20244;-88
2022/03/05 08:33:49;;;;;;;30.17;14.75;;;3.20;99.90;;;;;;5019479;28;20200;-88
2022/03/05 08:36:19;;;;;;;24.38;14.40;;;3.80;99.90;;;;;;5019800;28;20256;-88
2022/03/05 08:38:46;;;;;;;25.52;13.90;;;3.70;99.60;;;;;;5018697;28;20241;-88
2022/03/05 08:41:13;;;;;;;23.60;13.20;;;3.80;99.50;;;;;;5018788;28;20239;-88
2022/03/05 08:43:42;;;;;;;27.23;13.90;;;3.70;99.20;;;;;;5019970;28;20284;-88
2022/03/05 08:46:09;;;;;;;25.00;13.68;;;3.60;98.80;;;;;;5020082;28;20231;-88
2022/03/05 08:48:39;;;;;;;21.52;14.02;;;3.90;98.80;;;;;;5020801;28;20214;-88
2022/03/05 08:51:06;;;;;;;20.67;13.38;;;4.10;98.60;;;;;;5020839;28;20206;-88
2022/03/05 08:53:34;;;;;;;20.95;13.77;;;4.20;98.50;;;;;;5019983;28;20669;-88
2022/03/05 08:56:05;;;;;;;23.40;14.23;;;4.40;98.30;;;;;;5021576;28;20283;-89
2022/03/05 08:58:32;;;;;;;20.40;12.32;;;4.30;97.70;;;;;;5024835;28;20559;-88
2022/03/05 09:01:01;;;;;;;24.95;13.73;;;4.50;97.70;;;;;;5021033;28;20215;-89
2022/03/05 09:03:28;;;;;;;25.48;15.65;;;4.50;97.60;;;;;;5023098;28;20295;-88
2022/03/05 09:05:57;;;;;;;24.27;13.48;;;4.50;97.40;;;;;;5034787;28;20229;-88
2022/03/05 09:08:24;;;;;;;25.33;13.60;;;4.60;97.50;;;;;;5035966;28;20203;-88
2022/03/05 09:10:53;;;;;;;20.25;13.15;;;4.70;97.10;;;;;;5030157;28;20241;-89
2022/03/05 09:13:20;;;;;;;24.08;13.68;;;4.20;96.60;;;;;;5030766;28;20205;-88
2022/03/05 09:15:47;;;;;;;22.73;12.60;;;4.20;96.40;;;;;;5035714;28;20261;-88
2022/03/05 09:18:14;;;;;;;21.45;11.95;;;4.30;96.40;;;;;;5035424;28;20190;-88
2022/03/05 09:20:45;;;;;;;18.30;10.30;;;4.70;96.30;;;;;;5031367;28;20229;-89
2022/03/05 09:23:13;;;;;;;21.13;11.60;;;4.70;96.20;;;;;;5025115;28;20224;-88
2022/03/05 09:25:53;;;;;;;16.65;10.90;;;4.50;95.50;;;;;;5085068;23;20218;-89
2022/03/05 09:28:42;;;;;;;20.70;10.82;;;5.00;95.60;;;;;;5046351;28;20208;-88
2022/03/05 09:31:09;;;;;;;22.92;12.00;;;5.00;95.20;;;;;;5154414;23;20389;-90
2022/03/05 09:33:38;;;;;;;21.98;13.77;;;5.10;95.00;;;;;;5037165;28;20182;-88
2022/03/05 09:36:06;;;;;;;16.67;9.80;;;4.80;94.70;;;;;;5034609;23;20216;-89
2022/03/05 09:38:36;;;;;;;20.15;11.25;;;5.20;94.10;;;;;;5026837;28;20190;-90
2022/03/05 09:41:05;;;;;;;19.17;12.18;;;5.30;93.90;;;;;;5085655;23;20761;-88
2022/03/05 09:43:38;;;;;;;18.35;11.07;;;5.40;93.40;;;;;;5099991;23;20216;-90
2022/03/05 09:46:08;;;;;;;19.45;11.40;;;5.10;92.80;;;;;;5000219;28;20230;-89
2022/03/05 09:48:41;;;;;;;20.70;12.15;;;5.20;93.10;;;;;;4989201;28;20238;-90
2022/03/05 09:51:09;;;;;;;20.85;10.82;;;4.90;92.70;;;;;;4990282;28;20208;-90
2022/03/05 09:53:41;;;;;;;16.85;11.00;;;5.10;92.50;;;;;;5065395;23;20259;-90
2022/03/05 09:56:17;;;;;;;21.50;10.43;;;5.10;92.30;;;;;;4997386;28;20218;-89
2022/03/05 09:59:03;;;;;;;19.45;9.48;;;5.50;91.70;;;;;;4989406;28;20660;-89
2022/03/05 10:01:32;;;;;;;20.10;11.48;;;5.40;91.30;;;;;;4990962;28;20203;-88
2022/03/05 10:04:04;;;;;;;15.90;10.05;;;5.20;91.70;;;;;;4999048;28;20235;-89
2022/03/05 10:06:35;;;;;;;16.90;10.02;;;5.70;91.60;;;;;;4997109;28;20302;-89
2022/03/05 10:09:25;;;;;;;15.38;10.57;;;5.40;91.90;;;;;;4992337;28;20662;-91
2022/03/05 10:11:54;;;;;;;17.10;10.35;;;5.70;91.00;;;;;;4993455;28;20220;-88
2022/03/05 10:14:28;;;;;;;14.18;9.00;;;5.50;90.40;;;;;;4997557;28;20672;-89
2022/03/05 10:17:04;;;;;;;13.98;8.63;;;5.90;89.30;;;;;;4986623;28;20281;-89
2022/03/05 10:19:31;;;;;;;17.10;10.45;;;5.90;86.50;;;;;;4988304;28;20266;-90
2022/03/05 10:24:34;;;;;;;14.55;8.40;;;5.90;85.70;;;;;;5034206;28;20227;-90
2022/03/05 10:32:22;;;;;;;14.75;9.45;;;6.10;86.00;;;;;;5313488;23;20219;-89
2022/03/05 10:34:56;;;;;;;15.77;8.52;;;6.20;85.00;;;;;;5036339;28;20223;-90
2022/03/05 10:37:27;;;;;;;17.80;10.30;;;6.50;83.90;;;;;;5035024;28;20226;-89
2022/03/05 10:39:57;;;;;;;13.63;8.70;;;6.40;83.80;;;;;;5028911;28;20218;-88
2022/03/05 10:42:42;;;;;;;15.98;8.50;;;6.70;82.50;;;;;;5027360;28;20222;-89
2022/03/05 10:45:18;;;;;;;17.35;11.25;;;6.80;80.30;;;;;;5027325;28;20253;-89
2022/03/05 10:47:55;;;;;;;14.65;8.50;;;6.60;84.70;;;;;;5036945;23;20241;-89
2022/03/05 10:50:30;;;;;;;15.90;10.23;;;6.60;84.80;;;;;;5025762;28;20204;-88
2022/03/05 10:53:00;;;;;;;15.88;10.05;;;6.60;84.60;;;;;;5026457;28;20262;-89
2022/03/05 10:55:29;;;;;;;17.88;10.73;;;6.30;84.60;;;;;;5025641;28;20230;-88
2022/03/05 10:58:06;;;;;;;17.67;10.40;;;6.70;85.20;;;;;;5023050;28;20310;-88
2022/03/05 11:00:36;;;;;;;18.27;11.30;;;7.00;85.10;;;;;;5024888;28;20187;-89
2022/03/05 11:06:00;;;;;;;17.08;10.43;;;7.00;82.50;;;;;;5026941;28;20288;-90
2022/03/05 11:08:29;;;;;;;12.15;7.40;;;6.90;82.50;;;;;;5006050;28;20217;-89
2022/03/05 11:10:57;;;;;;;17.52;10.27;;;6.90;81.40;;;;;;5024339;28;20207;-89
2022/03/05 11:13:29;;;;;;;15.40;8.60;;;7.00;82.00;;;;;;5024955;28;20207;-90
2022/03/05 11:16:01;;;;;;;15.90;8.93;;;7.10;81.00;;;;;;5024692;28;20227;-90
2022/03/05 11:18:30;;;;;;;10.93;6.40;;;7.10;79.70;;;;;;5026297;28;20202;-90
2022/03/05 11:20:57;;;;;;;11.85;5.72;;;6.90;79.60;;;;;;5027615;28;20206;-90
2022/03/05 11:23:27;;;;;;;11.90;7.60;;;6.80;80.00;;;;;;5024240;28;20235;-89
2022/03/05 11:25:55;;;;;;;15.40;9.73;;;6.70;79.90;;;;;;5029564;28;20301;-89
2022/03/05 11:28:41;;;;;;;15.85;8.90;;;6.80;80.10;;;;;;5027508;28;20215;-89
2022/03/05 11:31:20;;;;;;;15.43;10.43;;;6.90;79.50;;;;;;5027723;28;20202;-89
2022/03/05 11:33:48;;;;;;;12.38;7.50;;;7.10;79.20;;;;;;5025506;28;20234;-89
2022/03/05 11:36:31;;;;;;;13.68;9.95;;;7.20;77.90;;;;;;5024312;28;20251;-89
2022/03/05 11:39:17;;;;;;;12.65;6.80;;;6.90;77.20;;;;;;5025875;28;20192;-90
2022/03/05 11:41:56;;;;;;;15.05;9.73;;;7.00;76.40;;;;;;5034392;28;20563;-90
2022/03/05 11:45:02;;;;;;;10.20;5.97;;;6.90;76.70;;;;;;5024984;28;20261;-90
2022/03/05 11:50:28;;;;;;;8.00;4.43;;;7.30;75.50;;;;;;5135181;27;1389619;-88
2022/03/05 11:53:16;;;;;;;9.85;5.63;;;7.00;73.70;;;;;;5165119;27;20202;-89
2022/03/05 11:55:48;;;;;;;13.68;6.93;;;6.90;72.90;;;;;;5149500;27;20247;-88
2022/03/05 11:58:39;;;;;;;13.43;7.38;;;7.10;72.80;;;;;;5148441;27;20263;-90
2022/03/05 12:01:39;;;;;;;11.80;7.65;;;7.00;72.10;;;;;;5146459;27;20210;-88
2022/03/05 12:04:28;;;;;;;12.93;8.13;;;7.00;71.80;;;;;;5144688;28;20207;-91
2022/03/05 12:07:03;;;;;;;11.57;6.60;;;7.00;71.60;;;;;;5144140;27;20299;-88
2022/03/05 12:09:48;;;;;;;12.20;7.63;;;7.00;71.10;;;;;;5145349;28;20234;-89
2022/03/05 12:12:19;;;;;;;14.25;6.95;;;7.00;70.90;;;;;;5147307;28;20203;-89
2022/03/05 12:15:13;;;;;;;12.38;7.10;;;7.20;70.40;;;;;;5144376;27;20224;-90
2022/03/05 12:17:55;;;;;;;11.48;7.72;;;7.10;70.20;;;;;;5148569;28;20191;-89
2022/03/05 12:20:27;;;;;;;12.23;5.28;;;7.50;70.30;;;;;;5153716;28;20175;-88
2022/03/05 12:22:58;;;;;;;15.05;9.07;;;7.40;68.80;;;;;;5153755;28;20194;-90
2022/03/05 12:25:26;;;;;;;12.98;7.97;;;6.70;68.80;;;;;;5143289;27;20247;-88
2022/03/05 12:27:54;;;;;;;10.65;6.25;;;7.00;69.60;;;;;;5141311;28;20196;-89
2022/03/05 12:30:24;;;;;;;8.93;4.90;;;6.70;68.80;;;;;;5138570;28;20219;-88
2022/03/05 12:32:52;;;;;;;14.70;8.13;;;6.90;68.70;;;;;;5142713;28;20204;-89
2022/03/05 12:35:21;;;;;;;11.30;4.97;;;6.80;68.10;;;;;;5147278;27;20238;-89
2022/03/05 12:37:52;;;;;;;13.70;7.75;;;6.80;67.30;;;;;;5150262;28;20208;-89
2022/03/05 12:40:23;;;;;;;13.35;9.20;;;7.10;67.40;;;;;;5140797;28;20187;-89
2022/03/05 12:42:52;;;;;;;14.02;6.82;;;7.00;67.60;;;;;;5140170;28;20203;-90
2022/03/05 12:45:24;;;;;;;12.55;8.10;;;7.40;66.50;;;;;;5136776;27;20227;-90
2022/03/05 12:47:52;;;;;;;12.23;6.95;;;6.90;65.10;;;;;;5142513;28;20222;-89
2022/03/05 12:50:31;;;;;;;12.95;7.78;;;7.50;65.50;;;;;;5151735;27;20252;-88
2022/03/05 12:53:08;;;;;;;10.55;7.72;;;7.20;65.10;;;;;;5147706;28;20209;-89
2022/03/05 12:55:49;;;;;;;12.10;7.60;;;7.40;65.00;;;;;;5144800;27;20306;-89
2022/03/05 12:58:18;;;;;;;12.02;7.55;;;7.10;65.20;;;;;;5138834;28;20211;-89
2022/03/05 13:00:47;;;;;;;13.10;8.07;;;7.50;65.70;;;;;;5132541;28;20208;-88
2022/03/05 13:03:15;;;;;;;14.90;6.90;;;7.60;65.70;;;;;;5127374;28;20660;-89
2022/03/05 13:05:47;;;;;;;15.43;7.60;;;7.60;65.20;;;;;;5126749;28;20461;-90
2022/03/05 13:08:23;;;;;;;11.18;7.80;;;7.60;63.40;;;;;;5125142;28;20485;-88
2022/03/05 13:11:06;;;;;;;8.00;5.70;;;7.20;63.80;;;;;;5124448;28;20195;-90